Other Surface Observations
Issued by NWS Great Falls, MT

Home | Current Version | Previous Version | Text Only | Print | Product List | Glossary On
Versions: 1 2 3 4 5 6 7 8 9 10 11 12 13 14 15 16 17 18 19 20 21 22 23 24 25 26 27 28 29 30 31 32 33 34 35 36 37 38 39 40 41 42 43 44 45 46 47 48 49 50
908
SXUS55 KTFX 042102
OSOTFX

AREA AWOS OBSERVATIONS
NATIONAL WEATHER SERVICE GREAT FALLS MT
0108 PM MST Sun Dec 04 2016

METAR K6S8 041955Z AUTO 16013KT 40SM 06/M09 A2964 RMK A01 T00551094
METAR K6S8 041855Z AUTO 19010KT 40SM 05/M10 A2968 RMK A01 T00501100
METAR K7S0 041955Z AUTO 17000KT 40SM 04/M03 A2967 RMK A01 T00441027
METAR K7S0 041855Z AUTO 34000KT 40SM 05/M02 A2970 RMK A01 T00501016
METAR K7S1 041955Z AUTO 18010KT 40SM 01/M04 A2970 RMK A01 T00051044
METAR K97M 041955Z AUTO 16001KT 40SM 03/M07 A2967 RMK A01 T00271066
METAR K9S2 041955Z AUTO 22003KT 40SM 00/M07 A2960 RMK A01 T00001072
METAR K9S5 041955Z AUTO 19016KT 40SM 04/04 A2966 RMK A01 T00380038
METAR KRPX 041955Z AUTO 18008KT 40SM 04/M10 A2956 RMK A01 T00381100
METAR KS01 041955Z AUTO 19015KT 40SM 06/M03 A2955 RMK A01 T00551033
METAR KS34 041955Z AUTO 18011KT 40SM 06/M01 A2964 RMK A01 T00551011



USA.gov is the U.S. government's official web portal to all federal, state and local government web resources and services.